Mirage, Colorado
Current Conditions -  °F | °C
As of 1:34 AM on Friday 31 Oct 2014 (Local Time) from K04V Reporting Station
Clear Clear  
Wind Chill: 26°   Ceiling: Unl
Heat Index: 34°   Visibility: 10mi
Dew Point: 18°   Wind: 9mph
Humidity: 52%   Direction: 330°NNW
Pressure: 30.41"   Gusts: NA
Location:  37.9777°N, 105.779°W
Report Text: K04V 310734Z AUTO 33008KT 10SM CLR 01/M08 A3041 RMK AO2
Loading
Personal Weather Stations






























Interactive Weather Map New forecast layout! Learn more

10-Day Weather Forecast

Advertisements
Track Severe Weather on mobile